AirNav   Advertisement
 
 354 users online  

49PA Gap View Airport
Stone Church, Pennsylvania, USA

GOING TO STONE CHURCH?


FAA INFORMATION EFFECTIVE 14 SEPTEMBER 2017

Location

FAA Identifier: 49PA
Lat/Long: 40-51-33.3480N / 075-08-01.6350W
40-51.555800N / 075-08.027250W
40.8592633 / -75.1337875
(estimated)
Elevation: 780 ft. / 238 m (estimated)
Variation: 12W (1985)
From city: 1 mile W of STONE CHURCH, PA
Time zone: UTC -4 (UTC -5 during Standard Time)
Zip code: 18013

Airport Operations

Airport use: Private use. Permission required prior to landing
Activation date: 01/1974
Control tower: no
ARTCC: NEW YORK CENTER
FSS: WILLIAMSPORT FLIGHT SERVICE STATION
Attendance: CONTINUOUS
Wind indicator: yes
Segmented circle: no

Airport Communications

WX ASOS at ABE (19 nm SW): PHONE 610-266-3579

Nearby radio navigation aids

VOR radial/distance  VOR name  Freq  Var
STWr247/14.5STILLWATER VOR/DME109.6011W
BWZr295/14.6BROADWAY VOR/DME114.2011W
FJCr071/16.6ALLENTOWN VORTAC117.5010W
SBJr323/24.3SOLBERG VOR/DME112.9010W
SAXr256/29.7SPARTA VORTAC115.7011W
ETXr065/30.1EAST TEXAS VOR/DME110.2009W
LVZr145/35.3WILKES-BARRE VORTAC111.6010W
ARDr354/37.8YARDLEY VOR/DME108.2010W

 
NDB name  Hdg/Dist  Freq  Var  ID
CHATHAM296/32.825413WCAT -.-. .- -

Airport Services

Airframe service: NONE
Powerplant service: NONE

Runway Information

Runway NW/SE

Dimensions: 1800 x 100 ft. / 549 x 30 m
Surface: turf
RUNWAY NW  RUNWAY SE
Traffic pattern: leftleft
Obstructions: plinenone

Airport Ownership and Management from official FAA records

Ownership: Privately-owned
Owner: WILLIAM E. STANDING
GAP VIEW AIRPORT, PO BOX 460
MOUNT BETHEL, PA 18343
Phone 610-745-4869
Manager: WILLIAM E. STANDING
GAP VIEW AIRPORT, PO BOX 460
MOUNT BETHEL, PA 18343
Phone 610-745-4869

Airport Operational Statistics

Aircraft based on the field: 2
Single engine airplanes: 2
    

Instrument Procedures

There are no published instrument procedures at 49PA.

Some nearby airports with instrument procedures:

N43 - Braden Airpark (9 nm SW)
1N7 - Blairstown Airport (9 nm NE)
N53 - Stroudsburg-Pocono Airport (11 nm N)
N85 - Alexandria Airport (17 nm S)
KABE - Lehigh Valley International Airport (19 nm SW)
N40 - Sky Manor Airport (19 nm S)
 
Loc | Ops | Rwys | IFR | FBO | Links
Com | Nav | Svcs | Stats | Notes


 
Area around 49PA (Gap View Airport)
 
Road maps at: MapQuest Bing Google
 
Aerial photo
No photo
 
Sectional chart

 
Airport distance calculator
Flying to Gap View Airport? Find the distance to fly.

From to 49PA

Sunrise and sunset
Times for 23-Sep-2017
 Local
(UTC-4)
 Zulu
(UTC)
Morning civil twilight06:2310:23
Sunrise06:5010:50
Sunset18:5622:56
Evening civil twilight19:2323:23

Current date and time
Zulu (UTC)  23-Sep-2017 10:01:35
Local (UTC-4)  23-Sep-2017 06:01:35
 
METAR
KABE 
19nm SW 
230951Z 00000KT 10SM CLR 17/12 A3004 RMK AO2 SLP171 T01670117
KMPO 
20nm NW 
230953Z AUTO 00000KT 10SM CLR 12/11 A3009 RMK AO2 SLP184 T01170106
K12N 
20nm NE 
230954Z AUTO 00000KT 13/13 A3005 RMK AO1 SLP172 T01330128
KXLL 
24nm SW 
230955Z AUTO 21003KT 10SM CLR 16/12 A3006 RMK AO2
KSMQ 
26nm SE 
ASOS 120.60 908-722-2139
061301Z AUTO 35008G15KT 7SM SCT012 OVC025 18/16 A2987 RMK AO2 PRESRR T01780161
KUKT 
28nm SW 
230955Z AUTO 00000KT 10SM CLR 14/13 A3005 RMK AO1
KCKZ 
29nm S 
230955Z AUTO 00000KT 10SM CLR 14/14 A3005 RMK AO2
KFWN 
31nm NE 
230953Z AUTO 00000KT 9SM CLR 12/12 A3005 RMK AO2 SLP174 T01220122
KDYL 
32nm S 
230954Z AUTO 00000KT 10SM CLR 17/11 A3002 RMK AO2 SLP162 T01670111
KMMU 
33nm E 
230955Z AUTO 00000KT 10SM CLR 16/12 A3002 RMK AO2
TAF
KABE 
19nm SW 
230520Z 2306/2406 34004KT P6SM FEW250
NOTAMs
Click for the latest NOTAMs
NOTAMs are issued by the DoD/FAA and will open in a separate window not controlled by AirNav.

 

 
 

Would you like to see your business listed on this page?

 If your business provides an interesting product or service to pilots, flight crews, aircraft, or users of the Gap View Airport, you should consider listing it here.  To start the listing process, click on the button below
 
Add a business
 

Other Pages about Gap View Airport

Update a link
 
Copyright © AirNav, LLC. All rights reserved. Privacy Policy  Contact